createdAt,value
2019-04-23T00:05:27.226Z,10.14
2019-04-23T00:08:07.317Z,10.06
2019-04-23T00:10:25.995Z,10.04
2019-04-23T00:15:26.754Z,10.15
2019-04-23T00:18:09.742Z,10.21
2019-04-23T00:20:34.854Z,10.17
2019-04-23T00:25:51.121Z,10.20
2019-04-23T00:28:20.477Z,10.09
2019-04-23T00:30:55.283Z,10.10
2019-04-23T00:35:53.333Z,10.17
2019-04-23T00:38:36.575Z,10.18
2019-04-23T00:40:58.263Z,10.17
2019-04-23T00:43:37.076Z,9.99
2019-04-23T00:45:59.603Z,10.03
2019-04-23T00:48:44.078Z,9.95
2019-04-23T00:51:02.173Z,10.02
2019-04-23T00:53:38.951Z,9.92
2019-04-23T00:56:31.892Z,9.72
2019-04-23T00:58:51.069Z,9.90
2019-04-23T01:01:18.536Z,9.91
2019-04-23T01:03:53.050Z,9.81
2019-04-23T01:06:47.641Z,9.92
2019-04-23T01:09:06.447Z,9.86
2019-04-23T01:11:34.217Z,9.93
2019-04-23T01:14:11.758Z,9.79
2019-04-23T01:16:38.124Z,9.84
2019-04-23T01:19:31.851Z,9.81
2019-04-23T01:21:49.454Z,9.91
2019-04-23T01:24:27.306Z,9.86
2019-04-23T01:27:51.583Z,9.77
2019-04-23T01:30:09.605Z,9.90
2019-04-23T01:37:41.195Z,9.60
2019-04-23T01:40:18.806Z,9.50
2019-04-23T01:42:44.614Z,9.65
2019-04-23T01:47:59.619Z,9.61
2019-04-23T01:50:31.162Z,9.69
2019-04-23T01:52:59.266Z,9.68
2019-04-23T01:55:36.317Z,9.72
2019-04-23T01:58:25.873Z,9.89
2019-04-23T02:00:40.767Z,9.83
2019-04-23T02:03:17.442Z,9.90
2019-04-23T02:06:00.344Z,9.93
2019-04-23T02:08:15.610Z,9.82
2019-04-23T02:15:53.831Z,9.93
2019-04-23T02:18:33.804Z,9.94
2019-04-23T02:21:16.900Z,9.84
2019-04-23T02:23:48.003Z,9.81
2019-04-23T02:26:20.055Z,9.91
2019-04-23T02:36:39.379Z,10.02
2019-04-23T02:39:05.567Z,10.12
2019-04-23T02:41:57.139Z,10.10
2019-04-23T02:44:16.619Z,10.37
2019-04-23T02:46:56.708Z,10.39
2019-04-23T02:51:59.304Z,10.25
2019-04-23T02:54:42.143Z,10.43
2019-04-23T03:00:11.750Z,10.42
2019-04-23T03:07:32.920Z,10.39
2019-04-23T03:10:02.932Z,10.38
2019-04-23T03:12:32.209Z,10.33
2019-04-23T03:15:09.296Z,10.28
2019-04-23T03:17:52.417Z,10.28
2019-04-23T03:23:03.219Z,10.29
2019-04-23T03:25:35.657Z,10.26
2019-04-23T03:28:21.274Z,10.25
2019-04-23T03:38:37.751Z,10.18
2019-04-23T03:46:16.066Z,10.03
2019-04-23T03:51:09.698Z,9.98
2019-04-23T03:53:52.805Z,9.85
2019-04-23T03:56:22.511Z,9.83
2019-04-23T03:58:47.867Z,9.85
2019-04-23T04:06:33.730Z,9.76
2019-04-23T04:09:13.315Z,9.74
2019-04-23T04:14:11.739Z,9.83
2019-04-23T04:16:56.150Z,9.90
2019-04-23T04:19:22.727Z,9.92
2019-04-23T04:21:41.377Z,9.94
2019-04-23T04:24:22.439Z,9.91
2019-04-23T04:26:51.419Z,9.84
2019-04-23T04:29:21.158Z,9.92
2019-04-23T04:34:41.750Z,10.06
2019-04-23T04:47:09.648Z,10.31
2019-04-23T04:49:54.712Z,10.34
2019-04-23T04:52:21.855Z,10.44
2019-04-23T04:54:24.595Z,10.58
2019-04-23T04:57:20.335Z,10.44
2019-04-23T05:02:30.514Z,10.49
2019-04-23T05:07:40.487Z,10.44
2019-04-23T05:10:07.519Z,10.53
2019-04-23T05:18:00.091Z,10.51
2019-04-23T05:20:26.117Z,10.62
2019-04-23T05:25:28.049Z,10.80
2019-04-23T05:28:17.344Z,10.91
2019-04-23T05:30:38.149Z,11.13
2019-04-23T05:33:14.531Z,11.27
2019-04-23T05:40:53.625Z,11.58
2019-04-23T05:43:19.298Z,11.76
2019-04-23T05:45:51.156Z,11.99
2019-04-23T05:51:00.863Z,12.32
2019-04-23T05:53:27.008Z,12.50
2019-04-23T05:56:02.199Z,12.68
2019-04-23T06:01:41.408Z,12.79
2019-04-23T06:04:09.327Z,12.98
2019-04-23T06:06:38.409Z,13.00
2019-04-23T06:11:47.060Z,12.92
2019-04-23T06:14:11.843Z,13.02
2019-04-23T06:19:14.114Z,13.20
2019-04-23T06:21:57.792Z,13.42
2019-04-23T06:24:22.216Z,13.48
2019-04-23T06:26:51.719Z,13.62
2019-04-23T06:29:25.475Z,13.72
2019-04-23T06:36:57.200Z,14.04
2019-04-23T06:39:37.597Z,13.91
2019-04-23T06:42:19.415Z,13.94
2019-04-23T06:44:45.749Z,14.07
2019-04-23T06:47:27.780Z,14.33
2019-04-23T06:49:50.932Z,14.50
2019-04-23T06:52:23.399Z,14.48
2019-04-23T06:55:09.414Z,14.52
2019-04-23T06:57:22.196Z,14.61
2019-04-23T06:59:54.669Z,14.69
2019-04-23T07:02:33.808Z,14.74
2019-04-23T07:05:10.529Z,14.78
2019-04-23T07:10:11.508Z,15.13
2019-04-23T07:12:45.925Z,15.30
2019-04-23T07:15:33.601Z,15.18
2019-04-23T07:17:42.778Z,15.19
2019-04-23T07:20:21.581Z,15.52
2019-04-23T07:23:03.603Z,15.64
2019-04-23T07:25:22.382Z,15.80
2019-04-23T07:27:56.904Z,15.87
2019-04-23T07:33:05.209Z,15.92
2019-04-23T07:35:37.984Z,15.99
2019-04-23T07:38:42.169Z,16.09
2019-04-23T07:41:25.271Z,16.18
2019-04-23T07:44:24.918Z,16.12
2019-04-23T07:47:11.609Z,16.15
2019-04-23T07:49:37.781Z,16.31
2019-04-23T07:52:11.593Z,16.22
2019-04-23T07:54:44.166Z,16.29
2019-04-23T07:57:13.462Z,16.39
2019-04-23T07:59:50.237Z,16.40
2019-04-23T08:02:23.463Z,16.43
2019-04-23T08:05:02.560Z,16.56
2019-04-23T08:07:22.923Z,16.88
2019-04-23T08:09:53.295Z,17.08
2019-04-23T08:12:40.263Z,16.83
2019-04-23T08:15:02.300Z,16.89
2019-04-23T08:17:28.111Z,16.88
2019-04-23T08:25:27.928Z,17.54
2019-04-23T08:27:55.515Z,17.48
2019-04-23T08:30:33.427Z,17.30
2019-04-23T08:33:11.019Z,17.82
2019-04-23T08:35:42.926Z,17.59
2019-04-23T08:38:18.575Z,17.88
2019-04-23T08:40:57.199Z,18.36
2019-04-23T08:43:29.295Z,18.75
2019-04-23T08:45:53.626Z,18.64
2019-04-23T08:48:34.193Z,18.31
2019-04-23T08:51:10.750Z,18.30
2019-04-23T08:56:05.006Z,18.14
2019-04-23T08:58:41.937Z,18.77
2019-04-23T09:01:27.889Z,19.24
2019-04-23T09:03:43.951Z,19.29
2019-04-23T09:06:20.280Z,19.61
2019-04-23T09:08:42.142Z,18.54
2019-04-23T09:11:35.245Z,18.39
2019-04-23T09:16:36.330Z,18.98
2019-04-23T09:19:08.910Z,19.46
2019-04-23T09:21:33.189Z,19.83
2019-04-23T09:24:04.326Z,19.12
2019-04-23T09:26:40.570Z,18.93
2019-04-23T09:29:14.775Z,18.90
2019-04-23T09:32:18.507Z,18.17
2019-04-23T09:34:46.548Z,18.17
2019-04-23T09:37:37.284Z,18.80
2019-04-23T09:40:14.918Z,19.05
2019-04-23T09:42:46.390Z,19.30
2019-04-23T09:45:15.798Z,19.46
2019-04-23T09:47:50.717Z,19.49
2019-04-23T09:50:26.350Z,19.72
2019-04-23T09:53:06.684Z,19.90
2019-04-23T09:55:30.016Z,19.62
2019-04-23T10:02:59.105Z,17.86
2019-04-23T10:05:21.819Z,17.94
2019-04-23T10:07:51.831Z,18.48
2019-04-23T10:10:16.443Z,19.20
2019-04-23T10:12:48.291Z,19.93
2019-04-23T10:15:25.080Z,19.46
2019-04-23T10:17:52.106Z,19.24
2019-04-23T10:20:24.639Z,19.59
2019-04-23T10:22:56.717Z,19.34
2019-04-23T10:25:27.958Z,19.89
2019-04-23T10:28:04.989Z,19.96
2019-04-23T10:30:32.991Z,19.94
2019-04-23T10:33:03.671Z,20.38
2019-04-23T10:35:44.573Z,19.89
2019-04-23T10:38:10.781Z,20.00
2019-04-23T10:40:43.951Z,20.63
2019-04-23T10:43:13.005Z,20.57
2019-04-23T10:46:20.431Z,20.12
2019-04-23T10:49:33.468Z,19.79
2019-04-23T10:52:08.982Z,19.71
2019-04-23T10:54:42.069Z,19.16
2019-04-23T11:15:22.134Z,20.32
2019-04-23T11:17:46.819Z,20.42
2019-04-23T11:22:54.915Z,20.42
2019-04-23T11:28:00.879Z,21.03
2019-04-23T11:35:39.182Z,21.40
2019-04-23T11:40:33.880Z,20.86
2019-04-23T11:43:13.133Z,20.08
2019-04-23T11:53:25.763Z,18.86
2019-04-23T11:55:58.870Z,18.63
2019-04-23T11:58:26.957Z,18.86
2019-04-23T12:04:05.687Z,19.51
2019-04-23T12:09:07.530Z,19.24
2019-04-23T12:11:52.913Z,19.44
2019-04-23T12:14:33.018Z,19.87
2019-04-23T12:17:13.017Z,19.86
2019-04-23T12:22:16.435Z,18.78
2019-04-23T12:25:02.402Z,19.12
2019-04-23T12:27:23.206Z,19.31
2019-04-23T12:40:23.439Z,18.89
2019-04-23T12:45:27.114Z,18.52
2019-04-23T12:53:05.708Z,18.51
2019-04-23T12:58:09.843Z,18.22
2019-04-23T13:00:36.351Z,18.30
2019-04-23T13:03:21.581Z,18.25
2019-04-23T13:05:35.926Z,18.31
2019-04-23T13:08:30.603Z,18.53
2019-04-23T13:15:53.271Z,18.60
2019-04-23T13:18:34.176Z,18.47
2019-04-23T13:21:05.329Z,18.19
2019-04-23T13:23:35.927Z,18.08
2019-04-23T13:26:04.113Z,18.13
2019-04-23T13:29:01.450Z,18.19
2019-04-23T13:33:43.843Z,18.04
2019-04-23T13:36:24.197Z,18.03
2019-04-23T13:39:10.589Z,18.03
2019-04-23T13:46:33.138Z,18.10
2019-04-23T13:49:01.258Z,18.15
2019-04-23T13:57:12.996Z,18.27
2019-04-23T13:59:21.752Z,18.23
2019-04-23T14:01:46.585Z,18.22
2019-04-23T14:07:05.512Z,18.22
2019-04-23T14:09:45.964Z,18.14
2019-04-23T14:12:13.581Z,18.10
2019-04-23T14:17:38.530Z,18.25
2019-04-23T14:20:03.880Z,18.47
2019-04-23T14:23:02.905Z,18.39
2019-04-23T14:25:08.288Z,18.26
2019-04-23T14:28:10.366Z,18.15
2019-04-23T14:32:49.915Z,18.09
2019-04-23T14:35:25.634Z,18.13
2019-04-23T14:38:11.399Z,18.10
2019-04-23T14:40:28.957Z,17.97
2019-04-23T14:45:41.426Z,17.94
2019-04-23T14:53:18.268Z,17.64
2019-04-23T14:55:57.782Z,17.74
2019-04-23T15:01:16.177Z,17.70
2019-04-23T15:03:36.694Z,17.74
2019-04-23T15:06:12.567Z,17.66
2019-04-23T15:08:39.742Z,17.51
2019-04-23T15:11:20.877Z,17.56
2019-04-23T15:13:47.364Z,17.62
2019-04-23T15:16:17.029Z,17.37
2019-04-23T15:28:43.111Z,16.89
2019-04-23T15:31:41.116Z,16.81
2019-04-23T15:34:20.875Z,16.62
2019-04-23T15:41:59.288Z,16.46
2019-04-23T15:44:25.308Z,16.43
2019-04-23T15:49:26.896Z,16.30
2019-04-23T15:51:57.938Z,16.31
2019-04-23T15:54:43.343Z,16.28
2019-04-23T16:01:43.185Z,16.06
2019-04-23T16:04:12.040Z,16.00
2019-04-23T16:06:43.624Z,15.94
2019-04-23T16:09:52.853Z,15.94
2019-04-23T16:12:09.815Z,15.92
2019-04-23T16:14:56.695Z,15.90
2019-04-23T16:22:39.686Z,15.81
2019-04-23T16:25:26.479Z,15.67
2019-04-23T16:28:00.046Z,15.65
2019-04-23T16:33:08.612Z,15.59
2019-04-23T16:35:43.378Z,15.52
2019-04-23T16:38:26.640Z,15.64
2019-04-23T16:40:41.162Z,15.60
2019-04-23T16:43:19.869Z,15.59
2019-04-23T16:45:51.768Z,15.54
2019-04-23T16:51:11.123Z,15.32
2019-04-23T16:53:27.157Z,15.30
2019-04-23T16:56:10.434Z,15.22
2019-04-23T17:01:10.182Z,15.18
2019-04-23T17:03:40.207Z,15.13
2019-04-23T17:06:27.176Z,15.19
2019-04-23T17:08:51.954Z,15.24
2019-04-23T17:13:48.455Z,15.06
2019-04-23T17:16:23.573Z,15.07
2019-04-23T17:18:53.748Z,15.04
2019-04-23T17:21:24.076Z,15.02
2019-04-23T17:26:29.380Z,14.85
2019-04-23T17:29:12.261Z,14.85
2019-04-23T17:34:21.245Z,14.77
2019-04-23T17:39:21.134Z,14.70
2019-04-23T17:42:16.000Z,14.65
2019-04-23T17:47:08.754Z,14.61
2019-04-23T17:49:41.682Z,14.60
2019-04-23T17:52:14.760Z,14.58
2019-04-23T17:54:48.076Z,14.58
2019-04-23T18:00:11.458Z,14.69
2019-04-23T18:05:04.117Z,14.51
2019-04-23T18:10:20.061Z,14.49
2019-04-23T18:15:05.055Z,14.51
2019-04-23T18:17:44.547Z,14.46
2019-04-23T18:20:16.646Z,14.41
2019-04-23T18:22:54.088Z,14.43
2019-04-23T18:25:31.208Z,14.43
2019-04-23T18:30:40.698Z,14.35
2019-04-23T18:35:44.508Z,14.37
2019-04-23T18:38:29.018Z,14.20
2019-04-23T18:41:08.340Z,14.39
2019-04-23T18:53:48.496Z,14.24
2019-04-23T19:01:11.295Z,14.16
2019-04-23T19:03:55.296Z,14.18
2019-04-23T19:06:32.076Z,14.14
2019-04-23T19:09:13.077Z,14.01
2019-04-23T19:11:58.215Z,13.92
2019-04-23T19:17:38.036Z,13.78
2019-04-23T19:19:46.612Z,13.70
2019-04-23T19:25:01.147Z,13.62
2019-04-23T19:27:35.240Z,13.51
2019-04-23T19:32:14.348Z,13.49
2019-04-23T19:34:56.318Z,13.44
2019-04-23T19:37:44.125Z,13.42
2019-04-23T19:40:06.066Z,13.46
2019-04-23T19:42:37.220Z,13.41
2019-04-23T19:45:08.404Z,13.43
2019-04-23T19:47:49.514Z,13.36
2019-04-23T19:50:13.629Z,13.34
2019-04-23T19:55:21.122Z,13.31
2019-04-23T19:57:55.391Z,13.35
2019-04-23T20:00:17.091Z,13.23
2019-04-23T20:03:13.264Z,13.19
2019-04-23T20:05:35.644Z,13.23
2019-04-23T20:08:25.459Z,13.25
2019-04-23T20:10:41.080Z,13.13
2019-04-23T20:13:19.682Z,13.06
2019-04-23T20:15:59.448Z,13.06
2019-04-23T20:18:21.894Z,12.99
2019-04-23T20:23:36.594Z,12.91
2019-04-23T20:32:06.026Z,12.80
2019-04-23T20:36:40.126Z,12.81
2019-04-23T20:39:16.341Z,12.74
2019-04-23T20:44:43.376Z,12.73
2019-04-23T20:47:06.359Z,12.74
2019-04-23T20:54:51.252Z,12.75
2019-04-23T21:07:57.504Z,12.66
2019-04-23T21:20:40.179Z,12.61
2019-04-23T21:23:12.427Z,12.61
2019-04-23T21:28:37.197Z,12.70
2019-04-23T21:33:43.481Z,12.60
2019-04-23T21:36:18.775Z,12.56
2019-04-23T21:41:41.930Z,12.59
2019-04-23T21:44:10.162Z,12.59
2019-04-23T21:51:46.036Z,12.54
2019-04-23T21:54:01.803Z,12.54
2019-04-23T21:56:43.027Z,12.58
2019-04-23T21:59:07.175Z,12.53
2019-04-23T22:07:02.866Z,12.61
2019-04-23T22:09:34.566Z,12.59
2019-04-23T22:12:11.206Z,12.53
2019-04-23T22:14:44.045Z,12.58
2019-04-23T22:17:13.331Z,12.59
2019-04-23T22:19:44.672Z,12.57
2019-04-23T22:22:07.766Z,12.54
2019-04-23T22:24:49.960Z,12.59
2019-04-23T22:27:16.145Z,12.58
2019-04-23T22:29:50.407Z,12.58
2019-04-23T22:32:30.443Z,12.54
2019-04-23T22:35:00.827Z,12.56
2019-04-23T22:37:36.510Z,12.60
2019-04-23T22:40:04.714Z,12.63
2019-04-23T22:45:10.572Z,12.60
2019-04-23T22:47:51.036Z,12.67
2019-04-23T22:50:16.036Z,12.65
2019-04-23T22:52:48.795Z,12.66
2019-04-23T22:55:12.746Z,12.67
2019-04-23T23:00:20.636Z,12.70
2019-04-23T23:03:06.320Z,12.69
2019-04-23T23:05:49.956Z,12.65
2019-04-23T23:08:10.714Z,12.73
2019-04-23T23:10:46.442Z,12.72
2019-04-23T23:13:15.566Z,12.71
2019-04-23T23:15:51.328Z,12.68
2019-04-23T23:18:17.858Z,12.69
2019-04-23T23:20:52.681Z,12.70
2019-04-23T23:25:56.902Z,12.68
2019-04-23T23:28:31.071Z,12.68
2019-04-23T23:31:08.034Z,12.68
2019-04-23T23:33:30.166Z,12.74
2019-04-23T23:36:10.402Z,12.76
2019-04-23T23:38:42.328Z,12.72
2019-04-23T23:41:25.036Z,12.75
2019-04-23T23:46:20.817Z,12.82
2019-04-23T23:48:48.391Z,12.84
2019-04-23T23:53:57.355Z,12.81
2019-04-23T23:56:23.873Z,12.81
2019-04-23T23:59:03.921Z,12.82
